Colfax, CA

12:11 AM PDT on August 29, 2016 (GMT -0700)
HADS | | Change Station

Elev 1943 ft 39.14 °N, 120.95 °W | Updated 5 hours ago

Clear
Clear
83 °F
Feels Like 81 °F
N
Wind Variable Wind from North
Gusts 0.0 mph

Today
High -- | Low -- °F
--% Chance of Precip.
Yesterday
High -- | Low -- °F
Precip. -- in
Pressure 30.17 in
Visibility 10.0 miles
Clouds Clear
Heat Index 81 °F
Dew Point 45 °F
Humidity 26%
Rainfall in
Snow Depth Not available.
6:30 AM 7:38 PM
Waning Crescent, 10% visible
METAR KGOO 290700Z AUTO 00000KT 10SM CLR 22/04 A3017 RMK AO1
Pressure 30.17 in
Visibility 10.0 miles
Clouds Clear
Heat Index 81 °F
Dew Point 45 °F
Humidity 26%
Rainfall in
Snow Depth Not available.
6:30 AM 7:38 PM
Waning Crescent, 10% visible
METAR KGOO 290700Z AUTO 00000KT 10SM CLR 22/04 A3017 RMK AO1

10-Day Weather Forecast

Almanac

Astronomy

Aug. 29, 2016 Rise Set
Actual Time
Civil Twilight
Nautical Twilight
Astronomical Twilight
Moon
Length of Visible Light
Length of Day
Tomorrow will be .
, % of the Moon is Illuminated

Today's Extremes

State Highs State Lows

Community

WunderPhotos

Upload Photos

1,935,800 photos uploaded!

WunderBlog® & News

Nearby

Air Quality

  Air Quality AQ Index Pollutant
Not available.

Snow Depth

Station Depth Elevation

Earthquake Activity

City Distance Mag. Time & Date
Minimum magnitude displayed is 2.5.

Coastal Water Temperatures

Place Temperature

Stations

Nearby Weather Stations

Station Location Temp. Windchill Dew Point Humidity Wind Precip. Elev Updated Type
                   

Watches & Warnings

There are currently no watches in effect.